Forside
METAR-TAF:

METAR-TAF

Lufthavne :

Mejervig

Lyksborg, Tyskland

Breddekreds: 54-50N, længdekreds: 009-30E, højde: 27 m

Aktuelle vejr

Denne rapport blev lavet for 42 minutter siden, kl. 14:20 UTC
Vind 9 kt fra nordnordøst
Temperatur 13°C
Fugtighed 44%
Tryk 1024 hPa
Sigt 10 km eller mere

METAR: ETGG 171420Z AUTO 03009KT 9999 // ////// 13/01 Q1024 ///

Tid: 17:02 (15:02 UTC)


TAF: fraværende

Vejrobservationer og prognoser fra mere end 4000 lufthavne (METAR og TAF).

De gule og røde prikker repræsenterer de meteorologiske stationer.

Flyt musen over at se navnet på stationen.

Så klik over at se vejr observationer og prognoser.

At skifte det kort: Klik på de grønne knapper med et sort kors for at zoome ind; på den grønne knap med en bindestreg for at zoome ud; eller på de grønne pile for tilstødende kort.


METAR-TAF: